Terminal Aerodrome Forecast
Issued by NWS

Home | Current Version | Previous Version | Graphics & Text | Print | Product List | Glossary On
Versions: 1 2 3 4 5 6 7 8 9 10 11 12 13 14 15 16 17 18 19 20 21
000
FTUS43 KGRB 221134
TAFATW
TAF
KATW 221134Z 2212/2312 20010KT P6SM OVC035 WS020/21035KT
      TEMPO 2212/2214 -SHRA BKN025
     FM221400 26009KT P6SM OVC022 WS020/20035KT
      TEMPO 2214/2217 -SHRA BKN015
     FM221700 29009KT P6SM -SHRA OVC024
     FM222000 29007KT P6SM OVC035
     FM222300 24004KT P6SM SCT250
      TEMPO 2308/2312 2SM BR=

USA.gov is the U.S. government's official web portal to all federal, state and local government web resources and services.